sensor_id;sensor_type;location;lat;lon;timestamp;P1;durP1;ratioP1;P2;durP2;ratioP2
17854;SDS011;9053;53.358;6.382;2023-11-21T00:01:53;7.93;;;3.60;;
17854;SDS011;9053;53.358;6.382;2023-11-21T00:04:23;7.70;;;3.90;;
17854;SDS011;9053;53.358;6.382;2023-11-21T00:06:55;9.50;;;3.63;;
17854;SDS011;9053;53.358;6.382;2023-11-21T00:09:25;8.27;;;3.37;;
17854;SDS011;9053;53.358;6.382;2023-11-21T00:11:55;8.50;;;3.47;;
17854;SDS011;9053;53.358;6.382;2023-11-21T00:14:28;8.47;;;3.60;;
17854;SDS011;9053;53.358;6.382;2023-11-21T00:16:59;6.10;;;2.90;;
17854;SDS011;9053;53.358;6.382;2023-11-21T00:19:29;7.30;;;3.57;;
17854;SDS011;9053;53.358;6.382;2023-11-21T00:21:59;7.47;;;3.87;;
17854;SDS011;9053;53.358;6.382;2023-11-21T00:24:29;8.03;;;3.63;;
17854;SDS011;9053;53.358;6.382;2023-11-21T00:27:01;9.90;;;4.20;;
17854;SDS011;9053;53.358;6.382;2023-11-21T00:29:33;12.13;;;3.93;;
17854;SDS011;9053;53.358;6.382;2023-11-21T00:32:04;6.03;;;3.37;;
17854;SDS011;9053;53.358;6.382;2023-11-21T00:34:35;9.10;;;4.20;;
17854;SDS011;9053;53.358;6.382;2023-11-21T00:37:05;7.73;;;3.93;;
17854;SDS011;9053;53.358;6.382;2023-11-21T00:39:35;8.70;;;3.30;;
17854;SDS011;9053;53.358;6.382;2023-11-21T00:42:06;5.27;;;3.20;;
17854;SDS011;9053;53.358;6.382;2023-11-21T00:44:40;4.77;;;2.80;;
17854;SDS011;9053;53.358;6.382;2023-11-21T00:47:10;6.17;;;2.80;;
17854;SDS011;9053;53.358;6.382;2023-11-21T00:49:40;5.60;;;3.17;;
17854;SDS011;9053;53.358;6.382;2023-11-21T00:52:10;4.73;;;2.77;;
17854;SDS011;9053;53.358;6.382;2023-11-21T00:54:40;4.30;;;2.73;;
17854;SDS011;9053;53.358;6.382;2023-11-21T00:57:11;4.10;;;2.83;;
17854;SDS011;9053;53.358;6.382;2023-11-21T00:59:44;5.33;;;2.50;;
17854;SDS011;9053;53.358;6.382;2023-11-21T01:02:14;4.00;;;2.60;;
17854;SDS011;9053;53.358;6.382;2023-11-21T01:04:44;3.30;;;2.30;;
17854;SDS011;9053;53.358;6.382;2023-11-21T01:07:14;4.00;;;2.50;;
17854;SDS011;9053;53.358;6.382;2023-11-21T01:09:48;4.03;;;2.40;;
17854;SDS011;9053;53.358;6.382;2023-11-21T01:12:18;4.93;;;2.60;;
17854;SDS011;9053;53.358;6.382;2023-11-21T01:14:50;4.23;;;2.50;;
17854;SDS011;9053;53.358;6.382;2023-11-21T01:17:20;4.27;;;2.60;;
17854;SDS011;9053;53.358;6.382;2023-11-21T01:19:51;3.97;;;2.37;;
17854;SDS011;9053;53.358;6.382;2023-11-21T01:22:21;3.90;;;2.33;;
17854;SDS011;9053;53.358;6.382;2023-11-21T01:24:53;4.10;;;2.23;;
17854;SDS011;9053;53.358;6.382;2023-11-21T01:27:23;4.27;;;2.73;;
17854;SDS011;9053;53.358;6.382;2023-11-21T01:29:55;4.40;;;2.90;;
17854;SDS011;9053;53.358;6.382;2023-11-21T01:32:26;5.60;;;2.90;;
17854;SDS011;9053;53.358;6.382;2023-11-21T01:34:56;5.33;;;2.80;;
17854;SDS011;9053;53.358;6.382;2023-11-21T01:37:23;3.80;;;2.93;;
17854;SDS011;9053;53.358;6.382;2023-11-21T01:39:55;3.60;;;2.37;;
17854;SDS011;9053;53.358;6.382;2023-11-21T01:42:25;7.43;;;3.23;;
17854;SDS011;9053;53.358;6.382;2023-11-21T01:44:58;6.67;;;3.40;;
17854;SDS011;9053;53.358;6.382;2023-11-21T01:47:28;10.10;;;4.47;;
17854;SDS011;9053;53.358;6.382;2023-11-21T01:49:59;8.07;;;4.23;;
17854;SDS011;9053;53.358;6.382;2023-11-21T01:52:31;8.10;;;3.70;;
17854;SDS011;9053;53.358;6.382;2023-11-21T01:55:01;8.90;;;4.60;;
17854;SDS011;9053;53.358;6.382;2023-11-21T01:57:33;9.53;;;4.13;;
17854;SDS011;9053;53.358;6.382;2023-11-21T02:00:07;10.20;;;4.93;;
17854;SDS011;9053;53.358;6.382;2023-11-21T02:02:46;11.20;;;5.23;;
17854;SDS011;9053;53.358;6.382;2023-11-21T02:05:17;10.10;;;5.13;;
17854;SDS011;9053;53.358;6.382;2023-11-21T02:07:48;8.47;;;4.60;;
17854;SDS011;9053;53.358;6.382;2023-11-21T02:10:19;11.80;;;5.30;;
17854;SDS011;9053;53.358;6.382;2023-11-21T02:12:51;16.77;;;5.97;;
17854;SDS011;9053;53.358;6.382;2023-11-21T02:15:25;13.60;;;5.70;;
17854;SDS011;9053;53.358;6.382;2023-11-21T02:17:56;12.23;;;5.10;;
17854;SDS011;9053;53.358;6.382;2023-11-21T02:20:27;14.13;;;6.27;;
17854;SDS011;9053;53.358;6.382;2023-11-21T02:23:01;15.53;;;6.13;;
17854;SDS011;9053;53.358;6.382;2023-11-21T02:25:32;17.23;;;5.90;;
17854;SDS011;9053;53.358;6.382;2023-11-21T02:28:04;16.27;;;6.47;;
17854;SDS011;9053;53.358;6.382;2023-11-21T02:30:34;14.57;;;5.87;;
17854;SDS011;9053;53.358;6.382;2023-11-21T02:33:04;21.83;;;7.57;;
17854;SDS011;9053;53.358;6.382;2023-11-21T02:35:34;18.43;;;7.33;;
17854;SDS011;9053;53.358;6.382;2023-11-21T02:38:07;21.90;;;7.27;;
17854;SDS011;9053;53.358;6.382;2023-11-21T02:40:37;21.50;;;8.30;;
17854;SDS011;9053;53.358;6.382;2023-11-21T02:43:07;18.33;;;7.13;;
17854;SDS011;9053;53.358;6.382;2023-11-21T02:45:37;18.07;;;8.43;;
17854;SDS011;9053;53.358;6.382;2023-11-21T02:48:08;19.07;;;7.80;;
17854;SDS011;9053;53.358;6.382;2023-11-21T02:50:38;18.97;;;7.70;;
17854;SDS011;9053;53.358;6.382;2023-11-21T02:53:13;24.23;;;8.40;;
17854;SDS011;9053;53.358;6.382;2023-11-21T02:55:43;22.47;;;8.63;;
17854;SDS011;9053;53.358;6.382;2023-11-21T02:58:13;29.63;;;9.90;;
17854;SDS011;9053;53.358;6.382;2023-11-21T03:00:43;29.30;;;8.97;;
17854;SDS011;9053;53.358;6.382;2023-11-21T03:03:13;23.50;;;9.27;;
17854;SDS011;9053;53.358;6.382;2023-11-21T03:05:43;23.30;;;9.17;;
17854;SDS011;9053;53.358;6.382;2023-11-21T03:08:16;24.47;;;8.67;;
17854;SDS011;9053;53.358;6.382;2023-11-21T03:10:46;21.30;;;10.30;;
17854;SDS011;9053;53.358;6.382;2023-11-21T03:13:16;22.33;;;8.97;;
17854;SDS011;9053;53.358;6.382;2023-11-21T03:15:46;34.83;;;11.77;;
17854;SDS011;9053;53.358;6.382;2023-11-21T03:18:16;27.23;;;9.57;;
17854;SDS011;9053;53.358;6.382;2023-11-21T03:20:48;26.67;;;9.20;;
17854;SDS011;9053;53.358;6.382;2023-11-21T03:23:21;31.10;;;8.97;;
17854;SDS011;9053;53.358;6.382;2023-11-21T03:25:51;25.67;;;8.70;;
17854;SDS011;9053;53.358;6.382;2023-11-21T03:28:21;26.30;;;9.33;;
17854;SDS011;9053;53.358;6.382;2023-11-21T03:30:51;26.70;;;9.37;;
17854;SDS011;9053;53.358;6.382;2023-11-21T03:33:21;26.20;;;9.50;;
17854;SDS011;9053;53.358;6.382;2023-11-21T03:35:51;25.77;;;8.93;;
17854;SDS011;9053;53.358;6.382;2023-11-21T03:38:24;25.33;;;8.90;;
17854;SDS011;9053;53.358;6.382;2023-11-21T03:40:54;22.53;;;8.63;;
17854;SDS011;9053;53.358;6.382;2023-11-21T03:43:24;22.83;;;10.03;;
17854;SDS011;9053;53.358;6.382;2023-11-21T03:45:54;18.43;;;8.43;;
17854;SDS011;9053;53.358;6.382;2023-11-21T03:48:25;27.00;;;10.70;;
17854;SDS011;9053;53.358;6.382;2023-11-21T03:50:55;23.67;;;9.30;;
17854;SDS011;9053;53.358;6.382;2023-11-21T03:53:27;25.10;;;11.27;;
17854;SDS011;9053;53.358;6.382;2023-11-21T03:55:57;22.63;;;9.10;;
17854;SDS011;9053;53.358;6.382;2023-11-21T03:58:28;25.13;;;9.87;;
17854;SDS011;9053;53.358;6.382;2023-11-21T04:00:58;25.37;;;9.90;;
17854;SDS011;9053;53.358;6.382;2023-11-21T04:03:28;32.77;;;9.57;;
17854;SDS011;9053;53.358;6.382;2023-11-21T04:05:58;35.97;;;12.20;;
17854;SDS011;9053;53.358;6.382;2023-11-21T04:08:31;25.30;;;10.63;;
17854;SDS011;9053;53.358;6.382;2023-11-21T04:11:00;34.83;;;10.97;;
17854;SDS011;9053;53.358;6.382;2023-11-21T04:13:30;28.83;;;10.90;;
17854;SDS011;9053;53.358;6.382;2023-11-21T04:16:00;32.37;;;12.03;;
17854;SDS011;9053;53.358;6.382;2023-11-21T04:18:31;34.37;;;11.40;;
17854;SDS011;9053;53.358;6.382;2023-11-21T04:21:01;32.67;;;11.20;;
17854;SDS011;9053;53.358;6.382;2023-11-21T04:23:33;28.73;;;11.57;;
17854;SDS011;9053;53.358;6.382;2023-11-21T04:26:04;33.93;;;11.50;;
17854;SDS011;9053;53.358;6.382;2023-11-21T04:28:35;39.70;;;13.17;;
17854;SDS011;9053;53.358;6.382;2023-11-21T04:31:05;35.00;;;13.43;;
17854;SDS011;9053;53.358;6.382;2023-11-21T04:33:35;35.50;;;13.53;;
17854;SDS011;9053;53.358;6.382;2023-11-21T04:36:05;34.93;;;13.93;;
17854;SDS011;9053;53.358;6.382;2023-11-21T04:38:38;37.67;;;14.13;;
17854;SDS011;9053;53.358;6.382;2023-11-21T04:41:09;36.63;;;13.00;;
17854;SDS011;9053;53.358;6.382;2023-11-21T04:43:37;30.73;;;12.53;;
17854;SDS011;9053;53.358;6.382;2023-11-21T04:46:07;33.27;;;12.33;;
17854;SDS011;9053;53.358;6.382;2023-11-21T04:48:37;32.30;;;11.87;;
17854;SDS011;9053;53.358;6.382;2023-11-21T04:51:07;36.43;;;12.60;;
17854;SDS011;9053;53.358;6.382;2023-11-21T04:53:40;35.63;;;13.00;;
17854;SDS011;9053;53.358;6.382;2023-11-21T04:56:10;30.97;;;12.40;;
17854;SDS011;9053;53.358;6.382;2023-11-21T04:58:40;32.50;;;11.13;;
17854;SDS011;9053;53.358;6.382;2023-11-21T05:01:11;30.97;;;11.37;;
17854;SDS011;9053;53.358;6.382;2023-11-21T05:03:41;35.33;;;11.90;;
17854;SDS011;9053;53.358;6.382;2023-11-21T05:06:11;37.30;;;13.67;;
17854;SDS011;9053;53.358;6.382;2023-11-21T05:08:43;36.00;;;12.83;;
17854;SDS011;9053;53.358;6.382;2023-11-21T05:11:22;33.90;;;11.97;;
17854;SDS011;9053;53.358;6.382;2023-11-21T05:13:53;35.33;;;12.20;;
17854;SDS011;9053;53.358;6.382;2023-11-21T05:16:25;38.97;;;14.53;;
17854;SDS011;9053;53.358;6.382;2023-11-21T05:18:55;48.10;;;17.57;;
17854;SDS011;9053;53.358;6.382;2023-11-21T05:21:27;48.80;;;17.07;;
17854;SDS011;9053;53.358;6.382;2023-11-21T05:24:01;48.03;;;17.60;;
17854;SDS011;9053;53.358;6.382;2023-11-21T05:26:33;50.93;;;16.53;;
17854;SDS011;9053;53.358;6.382;2023-11-21T05:29:03;51.87;;;16.70;;
17854;SDS011;9053;53.358;6.382;2023-11-21T05:31:33;48.97;;;16.20;;
17854;SDS011;9053;53.358;6.382;2023-11-21T05:34:03;45.87;;;15.57;;
17854;SDS011;9053;53.358;6.382;2023-11-21T05:36:33;45.13;;;16.37;;
17854;SDS011;9053;53.358;6.382;2023-11-21T05:39:06;52.87;;;16.90;;
17854;SDS011;9053;53.358;6.382;2023-11-21T05:41:37;43.13;;;16.40;;
17854;SDS011;9053;53.358;6.382;2023-11-21T05:44:07;51.90;;;17.00;;
17854;SDS011;9053;53.358;6.382;2023-11-21T05:46:38;49.20;;;16.70;;
17854;SDS011;9053;53.358;6.382;2023-11-21T05:49:10;53.00;;;17.30;;
17854;SDS011;9053;53.358;6.382;2023-11-21T05:51:40;51.30;;;16.10;;
17854;SDS011;9053;53.358;6.382;2023-11-21T05:54:15;45.10;;;16.37;;
17854;SDS011;9053;53.358;6.382;2023-11-21T05:56:45;46.90;;;15.57;;
17854;SDS011;9053;53.358;6.382;2023-11-21T05:59:15;46.53;;;15.43;;
17854;SDS011;9053;53.358;6.382;2023-11-21T06:01:49;46.43;;;15.03;;
17854;SDS011;9053;53.358;6.382;2023-11-21T06:04:20;46.67;;;15.43;;
17854;SDS011;9053;53.358;6.382;2023-11-21T06:06:51;45.20;;;14.93;;
17854;SDS011;9053;53.358;6.382;2023-11-21T06:09:24;40.43;;;14.70;;
17854;SDS011;9053;53.358;6.382;2023-11-21T06:11:54;38.87;;;14.73;;
17854;SDS011;9053;53.358;6.382;2023-11-21T06:14:25;38.33;;;15.47;;
17854;SDS011;9053;53.358;6.382;2023-11-21T06:16:55;42.37;;;16.07;;
17854;SDS011;9053;53.358;6.382;2023-11-21T06:19:25;39.63;;;15.20;;
17854;SDS011;9053;53.358;6.382;2023-11-21T06:21:55;46.63;;;16.93;;
17854;SDS011;9053;53.358;6.382;2023-11-21T06:24:27;35.63;;;14.80;;
17854;SDS011;9053;53.358;6.382;2023-11-21T06:26:58;37.10;;;15.13;;
17854;SDS011;9053;53.358;6.382;2023-11-21T06:29:28;35.83;;;15.63;;
17854;SDS011;9053;53.358;6.382;2023-11-21T06:31:58;39.37;;;15.13;;
17854;SDS011;9053;53.358;6.382;2023-11-21T06:34:31;35.17;;;14.90;;
17854;SDS011;9053;53.358;6.382;2023-11-21T06:37:01;34.77;;;14.50;;
17854;SDS011;9053;53.358;6.382;2023-11-21T06:39:34;32.10;;;13.73;;
17854;SDS011;9053;53.358;6.382;2023-11-21T06:42:05;33.27;;;15.07;;
17854;SDS011;9053;53.358;6.382;2023-11-21T06:44:35;31.50;;;13.73;;
17854;SDS011;9053;53.358;6.382;2023-11-21T06:47:05;31.90;;;13.37;;
17854;SDS011;9053;53.358;6.382;2023-11-21T06:49:36;26.10;;;13.27;;
17854;SDS011;9053;53.358;6.382;2023-11-21T06:52:06;28.63;;;12.60;;
17854;SDS011;9053;53.358;6.382;2023-11-21T06:54:39;25.43;;;12.63;;
17854;SDS011;9053;53.358;6.382;2023-11-21T06:57:09;27.10;;;13.20;;
17854;SDS011;9053;53.358;6.382;2023-11-21T06:59:39;23.87;;;12.17;;
17854;SDS011;9053;53.358;6.382;2023-11-21T07:02:09;23.90;;;11.70;;
17854;SDS011;9053;53.358;6.382;2023-11-21T07:04:41;23.57;;;11.70;;
17854;SDS011;9053;53.358;6.382;2023-11-21T07:07:11;24.37;;;12.00;;
17854;SDS011;9053;53.358;6.382;2023-11-21T07:09:44;22.87;;;11.63;;
17854;SDS011;9053;53.358;6.382;2023-11-21T07:12:15;23.13;;;11.77;;
17854;SDS011;9053;53.358;6.382;2023-11-21T07:14:46;24.37;;;11.73;;
17854;SDS011;9053;53.358;6.382;2023-11-21T07:17:16;22.37;;;11.67;;
17854;SDS011;9053;53.358;6.382;2023-11-21T07:19:46;21.23;;;11.27;;
17854;SDS011;9053;53.358;6.382;2023-11-21T07:22:16;22.90;;;11.50;;
17854;SDS011;9053;53.358;6.382;2023-11-21T07:24:51;22.30;;;12.23;;
17854;SDS011;9053;53.358;6.382;2023-11-21T07:27:21;24.03;;;12.20;;
17854;SDS011;9053;53.358;6.382;2023-11-21T07:29:51;23.53;;;11.97;;
17854;SDS011;9053;53.358;6.382;2023-11-21T07:32:21;25.03;;;13.00;;
17854;SDS011;9053;53.358;6.382;2023-11-21T07:34:52;27.50;;;12.80;;
17854;SDS011;9053;53.358;6.382;2023-11-21T07:37:24;29.90;;;13.27;;
17854;SDS011;9053;53.358;6.382;2023-11-21T07:39:58;26.50;;;13.70;;
17854;SDS011;9053;53.358;6.382;2023-11-21T07:42:28;30.03;;;14.03;;
17854;SDS011;9053;53.358;6.382;2023-11-21T07:44:59;28.90;;;14.90;;
17854;SDS011;9053;53.358;6.382;2023-11-21T07:47:29;32.80;;;15.07;;
17854;SDS011;9053;53.358;6.382;2023-11-21T07:50:04;33.23;;;14.60;;
17854;SDS011;9053;53.358;6.382;2023-11-21T07:52:36;34.03;;;16.03;;
17854;SDS011;9053;53.358;6.382;2023-11-21T07:55:09;33.10;;;15.47;;
17854;SDS011;9053;53.358;6.382;2023-11-21T07:57:39;34.63;;;16.10;;
17854;SDS011;9053;53.358;6.382;2023-11-21T08:00:09;31.27;;;15.57;;
17854;SDS011;9053;53.358;6.382;2023-11-21T08:02:42;27.97;;;15.07;;
17854;SDS011;9053;53.358;6.382;2023-11-21T08:05:12;32.13;;;15.40;;
17854;SDS011;9053;53.358;6.382;2023-11-21T08:07:53;31.93;;;15.47;;
17854;SDS011;9053;53.358;6.382;2023-11-21T08:10:26;30.23;;;14.93;;
17854;SDS011;9053;53.358;6.382;2023-11-21T08:12:57;27.27;;;14.47;;
17854;SDS011;9053;53.358;6.382;2023-11-21T08:15:27;25.03;;;13.93;;
17854;SDS011;9053;53.358;6.382;2023-11-21T08:17:58;26.87;;;14.77;;
17854;SDS011;9053;53.358;6.382;2023-11-21T08:20:28;25.80;;;13.77;;
17854;SDS011;9053;53.358;6.382;2023-11-21T08:22:59;28.27;;;15.03;;
17854;SDS011;9053;53.358;6.382;2023-11-21T08:25:32;26.57;;;14.50;;
17854;SDS011;9053;53.358;6.382;2023-11-21T08:28:02;26.47;;;14.73;;
17854;SDS011;9053;53.358;6.382;2023-11-21T08:30:32;30.83;;;15.07;;
17854;SDS011;9053;53.358;6.382;2023-11-21T08:33:02;27.33;;;14.50;;
17854;SDS011;9053;53.358;6.382;2023-11-21T08:35:32;28.07;;;14.20;;
17854;SDS011;9053;53.358;6.382;2023-11-21T08:38:03;28.13;;;14.67;;
17854;SDS011;9053;53.358;6.382;2023-11-21T08:40:39;23.23;;;14.20;;
17854;SDS011;9053;53.358;6.382;2023-11-21T08:43:09;23.43;;;14.30;;
17854;SDS011;9053;53.358;6.382;2023-11-21T08:45:41;23.10;;;13.63;;
17854;SDS011;9053;53.358;6.382;2023-11-21T08:48:11;22.97;;;13.30;;
17854;SDS011;9053;53.358;6.382;2023-11-21T08:50:42;22.87;;;13.13;;
17854;SDS011;9053;53.358;6.382;2023-11-21T08:53:12;22.80;;;14.77;;
17854;SDS011;9053;53.358;6.382;2023-11-21T08:55:46;23.03;;;13.53;;
17854;SDS011;9053;53.358;6.382;2023-11-21T08:58:16;25.43;;;14.13;;
17854;SDS011;9053;53.358;6.382;2023-11-21T09:00:46;24.13;;;13.93;;
17854;SDS011;9053;53.358;6.382;2023-11-21T09:03:16;21.37;;;14.00;;
17854;SDS011;9053;53.358;6.382;2023-11-21T09:05:46;23.40;;;14.07;;
17854;SDS011;9053;53.358;6.382;2023-11-21T09:08:18;22.97;;;14.10;;
17854;SDS011;9053;53.358;6.382;2023-11-21T09:10:51;27.40;;;14.57;;
17854;SDS011;9053;53.358;6.382;2023-11-21T09:13:21;23.07;;;14.07;;
17854;SDS011;9053;53.358;6.382;2023-11-21T09:15:52;21.60;;;13.33;;
17854;SDS011;9053;53.358;6.382;2023-11-21T09:18:22;21.30;;;13.53;;
17854;SDS011;9053;53.358;6.382;2023-11-21T09:20:52;21.73;;;13.07;;
17854;SDS011;9053;53.358;6.382;2023-11-21T09:23:22;22.83;;;13.27;;
17854;SDS011;9053;53.358;6.382;2023-11-21T09:25:54;20.23;;;12.00;;
17854;SDS011;9053;53.358;6.382;2023-11-21T09:28:26;20.47;;;11.90;;
17854;SDS011;9053;53.358;6.382;2023-11-21T09:30:56;15.87;;;10.67;;
17854;SDS011;9053;53.358;6.382;2023-11-21T09:33:28;13.90;;;9.13;;
17854;SDS011;9053;53.358;6.382;2023-11-21T09:35:58;11.13;;;7.50;;
17854;SDS011;9053;53.358;6.382;2023-11-21T09:38:31;11.83;;;7.90;;
17854;SDS011;9053;53.358;6.382;2023-11-21T09:41:04;12.27;;;7.50;;
17854;SDS011;9053;53.358;6.382;2023-11-21T09:43:44;11.13;;;7.63;;
17854;SDS011;9053;53.358;6.382;2023-11-21T09:46:17;11.17;;;7.33;;
17854;SDS011;9053;53.358;6.382;2023-11-21T09:48:49;9.30;;;6.73;;
17854;SDS011;9053;53.358;6.382;2023-11-21T09:51:20;12.10;;;7.33;;
17854;SDS011;9053;53.358;6.382;2023-11-21T09:53:56;11.73;;;7.10;;
17854;SDS011;9053;53.358;6.382;2023-11-21T09:56:35;11.77;;;7.47;;
17854;SDS011;9053;53.358;6.382;2023-11-21T09:59:06;12.90;;;7.97;;
17854;SDS011;9053;53.358;6.382;2023-11-21T10:01:39;12.97;;;8.30;;
17854;SDS011;9053;53.358;6.382;2023-11-21T10:04:11;14.77;;;8.43;;
17854;SDS011;9053;53.358;6.382;2023-11-21T10:06:42;13.73;;;8.67;;
17854;SDS011;9053;53.358;6.382;2023-11-21T10:09:14;11.23;;;7.97;;
17854;SDS011;9053;53.358;6.382;2023-11-21T10:11:49;11.83;;;7.93;;
17854;SDS011;9053;53.358;6.382;2023-11-21T10:14:20;11.80;;;7.57;;
17854;SDS011;9053;53.358;6.382;2023-11-21T10:16:55;10.23;;;7.00;;
17854;SDS011;9053;53.358;6.382;2023-11-21T10:19:27;10.63;;;7.47;;
17854;SDS011;9053;53.358;6.382;2023-11-21T10:21:57;11.37;;;7.23;;
17854;SDS011;9053;53.358;6.382;2023-11-21T10:24:30;9.57;;;6.27;;
17854;SDS011;9053;53.358;6.382;2023-11-21T10:27:16;9.80;;;6.60;;
17854;SDS011;9053;53.358;6.382;2023-11-21T10:29:46;10.90;;;7.07;;
17854;SDS011;9053;53.358;6.382;2023-11-21T10:32:16;10.17;;;6.50;;
17854;SDS011;9053;53.358;6.382;2023-11-21T10:34:55;7.90;;;5.60;;
17854;SDS011;9053;53.358;6.382;2023-11-21T10:37:27;8.40;;;6.20;;
17854;SDS011;9053;53.358;6.382;2023-11-21T10:39:57;7.73;;;6.30;;
17854;SDS011;9053;53.358;6.382;2023-11-21T10:42:30;8.63;;;5.00;;
17854;SDS011;9053;53.358;6.382;2023-11-21T10:45:03;6.63;;;5.20;;
17854;SDS011;9053;53.358;6.382;2023-11-21T10:47:39;7.73;;;5.17;;
17854;SDS011;9053;53.358;6.382;2023-11-21T10:50:10;7.67;;;5.17;;
17854;SDS011;9053;53.358;6.382;2023-11-21T10:52:41;7.50;;;5.20;;
17854;SDS011;9053;53.358;6.382;2023-11-21T10:55:16;7.57;;;4.93;;
17854;SDS011;9053;53.358;6.382;2023-11-21T10:57:52;8.03;;;5.03;;
17854;SDS011;9053;53.358;6.382;2023-11-21T11:00:23;6.07;;;4.20;;
17854;SDS011;9053;53.358;6.382;2023-11-21T11:02:54;6.33;;;4.60;;
17854;SDS011;9053;53.358;6.382;2023-11-21T11:05:26;6.77;;;4.87;;
17854;SDS011;9053;53.358;6.382;2023-11-21T11:08:00;7.47;;;4.90;;
17854;SDS011;9053;53.358;6.382;2023-11-21T11:10:33;7.83;;;4.90;;
17854;SDS011;9053;53.358;6.382;2023-11-21T11:13:06;6.03;;;4.40;;
17854;SDS011;9053;53.358;6.382;2023-11-21T11:15:37;6.27;;;4.43;;
17854;SDS011;9053;53.358;6.382;2023-11-21T11:18:08;6.30;;;4.30;;
17854;SDS011;9053;53.358;6.382;2023-11-21T11:20:38;6.17;;;4.63;;
17854;SDS011;9053;53.358;6.382;2023-11-21T11:23:16;5.40;;;4.17;;
17854;SDS011;9053;53.358;6.382;2023-11-21T11:26:06;6.73;;;4.77;;
17854;SDS011;9053;53.358;6.382;2023-11-21T11:28:47;8.03;;;4.63;;
17854;SDS011;9053;53.358;6.382;2023-11-21T11:31:24;6.93;;;4.83;;
17854;SDS011;9053;53.358;6.382;2023-11-21T11:34:06;6.33;;;4.93;;
17854;SDS011;9053;53.358;6.382;2023-11-21T11:36:47;7.13;;;4.37;;
17854;SDS011;9053;53.358;6.382;2023-11-21T11:39:27;6.43;;;4.97;;
17854;SDS011;9053;53.358;6.382;2023-11-21T11:41:58;7.50;;;5.23;;
17854;SDS011;9053;53.358;6.382;2023-11-21T11:44:49;7.00;;;4.90;;
17854;SDS011;9053;53.358;6.382;2023-11-21T11:47:23;8.00;;;5.33;;
17854;SDS011;9053;53.358;6.382;2023-11-21T11:50:00;8.70;;;5.93;;
17854;SDS011;9053;53.358;6.382;2023-11-21T11:52:38;8.00;;;5.23;;
17854;SDS011;9053;53.358;6.382;2023-11-21T11:55:11;8.03;;;5.60;;
17854;SDS011;9053;53.358;6.382;2023-11-21T11:57:45;8.33;;;6.03;;
17854;SDS011;9053;53.358;6.382;2023-11-21T12:00:21;10.00;;;7.13;;
17854;SDS011;9053;53.358;6.382;2023-11-21T12:03:00;8.67;;;5.90;;
17854;SDS011;9053;53.358;6.382;2023-11-21T12:05:31;7.40;;;5.23;;
17854;SDS011;9053;53.358;6.382;2023-11-21T12:08:03;7.97;;;5.50;;
17854;SDS011;9053;53.358;6.382;2023-11-21T12:10:34;9.33;;;5.80;;
17854;SDS011;9053;53.358;6.382;2023-11-21T12:13:07;8.83;;;5.70;;
17854;SDS011;9053;53.358;6.382;2023-11-21T12:15:42;7.40;;;5.50;;
17854;SDS011;9053;53.358;6.382;2023-11-21T12:18:12;8.07;;;5.57;;
17854;SDS011;9053;53.358;6.382;2023-11-21T12:20:42;9.67;;;5.87;;
17854;SDS011;9053;53.358;6.382;2023-11-21T12:23:15;11.97;;;7.17;;
17854;SDS011;9053;53.358;6.382;2023-11-21T12:25:45;9.80;;;6.87;;
17854;SDS011;9053;53.358;6.382;2023-11-21T12:28:15;11.43;;;6.83;;
17854;SDS011;9053;53.358;6.382;2023-11-21T12:30:48;11.37;;;7.33;;
17854;SDS011;9053;53.358;6.382;2023-11-21T12:33:29;10.67;;;6.97;;
17854;SDS011;9053;53.358;6.382;2023-11-21T12:35:59;10.97;;;6.80;;
17854;SDS011;9053;53.358;6.382;2023-11-21T12:38:33;10.80;;;7.27;;
17854;SDS011;9053;53.358;6.382;2023-11-21T12:41:03;10.37;;;7.03;;
17854;SDS011;9053;53.358;6.382;2023-11-21T12:43:34;13.03;;;7.07;;
17854;SDS011;9053;53.358;6.382;2023-11-21T12:46:09;9.17;;;6.67;;
17854;SDS011;9053;53.358;6.382;2023-11-21T12:48:41;10.53;;;6.53;;
17854;SDS011;9053;53.358;6.382;2023-11-21T12:51:12;9.13;;;5.97;;
17854;SDS011;9053;53.358;6.382;2023-11-21T12:53:45;8.03;;;5.27;;
17854;SDS011;9053;53.358;6.382;2023-11-21T12:56:15;8.60;;;5.50;;
17854;SDS011;9053;53.358;6.382;2023-11-21T12:58:47;8.77;;;5.80;;
17854;SDS011;9053;53.358;6.382;2023-11-21T13:01:20;8.93;;;5.80;;
17854;SDS011;9053;53.358;6.382;2023-11-21T13:03:50;8.80;;;5.53;;
17854;SDS011;9053;53.358;6.382;2023-11-21T13:06:20;8.10;;;5.40;;
17854;SDS011;9053;53.358;6.382;2023-11-21T13:08:51;7.27;;;4.90;;
17854;SDS011;9053;53.358;6.382;2023-11-21T13:11:23;8.77;;;5.67;;
17854;SDS011;9053;53.358;6.382;2023-11-21T13:13:54;8.27;;;5.47;;
17854;SDS011;9053;53.358;6.382;2023-11-21T13:16:27;9.60;;;5.43;;
17854;SDS011;9053;53.358;6.382;2023-11-21T13:18:57;9.33;;;5.03;;
17854;SDS011;9053;53.358;6.382;2023-11-21T13:21:27;9.83;;;4.77;;
17854;SDS011;9053;53.358;6.382;2023-11-21T13:23:57;6.83;;;4.57;;
17854;SDS011;9053;53.358;6.382;2023-11-21T13:26:27;4.43;;;3.57;;
17854;SDS011;9053;53.358;6.382;2023-11-21T13:28:58;4.93;;;3.60;;
17854;SDS011;9053;53.358;6.382;2023-11-21T13:31:34;6.43;;;3.60;;
17854;SDS011;9053;53.358;6.382;2023-11-21T13:34:05;6.63;;;3.77;;
17854;SDS011;9053;53.358;6.382;2023-11-21T13:36:35;7.80;;;3.83;;
17854;SDS011;9053;53.358;6.382;2023-11-21T13:39:06;8.27;;;4.23;;
17854;SDS011;9053;53.358;6.382;2023-11-21T13:41:43;8.07;;;4.00;;
17854;SDS011;9053;53.358;6.382;2023-11-21T13:44:15;4.60;;;3.80;;
17854;SDS011;9053;53.358;6.382;2023-11-21T13:46:56;8.10;;;4.00;;
17854;SDS011;9053;53.358;6.382;2023-11-21T13:49:26;5.27;;;3.60;;
17854;SDS011;9053;53.358;6.382;2023-11-21T13:52:02;7.50;;;3.80;;
17854;SDS011;9053;53.358;6.382;2023-11-21T13:54:34;5.60;;;3.40;;
17854;SDS011;9053;53.358;6.382;2023-11-21T13:57:04;5.67;;;3.80;;
17854;SDS011;9053;53.358;6.382;2023-11-21T13:59:35;7.07;;;3.63;;
17854;SDS011;9053;53.358;6.382;2023-11-21T14:02:08;5.77;;;4.20;;
17854;SDS011;9053;53.358;6.382;2023-11-21T14:04:45;5.73;;;3.50;;
17854;SDS011;9053;53.358;6.382;2023-11-21T14:07:26;4.40;;;3.00;;
17854;SDS011;9053;53.358;6.382;2023-11-21T14:10:03;5.50;;;3.03;;
17854;SDS011;9053;53.358;6.382;2023-11-21T14:12:38;4.80;;;2.80;;
17854;SDS011;9053;53.358;6.382;2023-11-21T14:15:09;5.27;;;3.30;;
17854;SDS011;9053;53.358;6.382;2023-11-21T14:17:46;5.57;;;3.00;;
17854;SDS011;9053;53.358;6.382;2023-11-21T14:20:16;4.00;;;3.30;;
17854;SDS011;9053;53.358;6.382;2023-11-21T14:22:50;4.50;;;2.90;;
17854;SDS011;9053;53.358;6.382;2023-11-21T14:25:20;7.17;;;3.23;;
17854;SDS011;9053;53.358;6.382;2023-11-21T14:27:51;5.87;;;3.33;;
17854;SDS011;9053;53.358;6.382;2023-11-21T14:30:21;6.03;;;3.20;;
17854;SDS011;9053;53.358;6.382;2023-11-21T14:32:54;6.93;;;3.37;;
17854;SDS011;9053;53.358;6.382;2023-11-21T14:35:27;5.37;;;3.37;;
17854;SDS011;9053;53.358;6.382;2023-11-21T14:37:59;4.53;;;3.17;;
17854;SDS011;9053;53.358;6.382;2023-11-21T14:40:31;5.33;;;2.80;;
17854;SDS011;9053;53.358;6.382;2023-11-21T14:43:02;3.90;;;2.70;;
17854;SDS011;9053;53.358;6.382;2023-11-21T14:45:34;4.87;;;2.60;;
17854;SDS011;9053;53.358;6.382;2023-11-21T14:48:08;3.87;;;2.60;;
17854;SDS011;9053;53.358;6.382;2023-11-21T14:50:44;5.10;;;2.67;;
17854;SDS011;9053;53.358;6.382;2023-11-21T14:53:38;3.53;;;2.40;;
17854;SDS011;9053;53.358;6.382;2023-11-21T14:56:20;3.90;;;2.40;;
17854;SDS011;9053;53.358;6.382;2023-11-21T14:58:53;3.13;;;2.60;;
17854;SDS011;9053;53.358;6.382;2023-11-21T15:01:23;5.57;;;2.90;;
17854;SDS011;9053;53.358;6.382;2023-11-21T15:04:08;4.27;;;2.53;;
17854;SDS011;9053;53.358;6.382;2023-11-21T15:06:47;3.97;;;2.67;;
17854;SDS011;9053;53.358;6.382;2023-11-21T15:09:15;5.40;;;2.60;;
17854;SDS011;9053;53.358;6.382;2023-11-21T15:12:03;4.60;;;2.80;;
17854;SDS011;9053;53.358;6.382;2023-11-21T15:14:41;5.67;;;3.03;;
17854;SDS011;9053;53.358;6.382;2023-11-21T15:17:12;4.57;;;3.13;;